lundi 17 février 2014

ALERTE SPOTTING 17/02/14

320 F-HDMF Air Corsica (cyclistes)
   XK4511/XK4500  08h30/0925
  XK4505/XK4504  19h55/21h00

CJ8
   arv  13H00

73H TC-AZP Pegasus (sticker 'Asia')
  PC401/PC402  13h20/14h10

CCX
   arv 17h50

Manque les prévisions/immats UX / BE / AZ / TP / BA / TU / certains AH
*** Heures en Local Time / prévisions soumises
 à modifications de dernières minutes ***

le TAF de la journée



METAR: LFPO 170330Z 20005KT CAVOK 04/03 Q1011 NOSIG= 

TAF LONG: LFPO 162300Z 1700/1806 16006KT CAVOK TEMPO 1703/1709 BKN008
PROB30 TEMPO 1703/1708 4000 BR PROB30 TEMPO 1803/1806 4000 BR=


 Les logs des jours précédents :
 http://www.airkalo.com/ORLYAVIATION/Logdumois.html